Time;durP1;ratioP1;P1;durP2;ratioP2;P2;SDS_P1;SDS_P2;PMS_P1;PMS_P2;Temp;Humidity;BMP_temperature;BMP_pressure;BME280_temperature;BME280_humidity;BME280_pressure;Samples;Min_cycle;Max_cycle;Signal;HPM_P1;HPM_P2
2022/10/18 00:00:28;;;;;;;12.20;6.90;;;;;;;11.64;58.82;96166.84;5076141;28;20190;-82
2022/10/18 00:02:56;;;;;;;9.93;7.30;;;;;;;11.61;58.96;96159.34;5089881;28;20205;-84
2022/10/18 00:05:26;;;;;;;12.53;7.53;;;;;;;11.59;58.96;96160.41;5095354;28;20239;-83
2022/10/18 00:07:53;;;;;;;8.80;6.83;;;;;;;11.48;59.00;96151.69;5095614;28;20210;-81
2022/10/18 00:10:20;;;;;;;10.23;6.53;;;;;;;11.54;58.92;96158.97;5095348;28;20263;-83
2022/10/18 00:12:47;;;;;;;9.47;6.43;;;;;;;11.44;58.90;96136.66;5094785;28;20198;-83
2022/10/18 00:15:16;;;;;;;8.93;6.23;;;;;;;11.51;59.11;96148.13;5095017;28;20186;-82
2022/10/18 00:17:43;;;;;;;8.23;7.00;;;;;;;11.45;59.09;96140.88;5095305;28;20633;-82
2022/10/18 00:20:11;;;;;;;11.40;6.93;;;;;;;11.46;59.07;96140.75;5084391;28;20244;-83
2022/10/18 00:22:41;;;;;;;10.90;6.70;;;;;;;11.41;59.19;96134.34;5073410;28;20734;-81
2022/10/18 00:25:09;;;;;;;10.27;6.60;;;;;;;11.35;58.88;96125.31;5073500;28;20186;-82
2022/10/18 00:27:39;;;;;;;9.20;6.50;;;;;;;11.43;59.28;96129.91;5072720;28;20202;-81
2022/10/18 00:30:10;;;;;;;8.97;5.67;;;;;;;11.38;59.34;96122.53;5073372;28;20201;-81
2022/10/18 00:32:39;;;;;;;15.67;6.97;;;;;;;11.36;59.28;96121.03;5072641;28;20198;-83
2022/10/18 00:35:10;;;;;;;10.77;6.20;;;;;;;11.33;59.35;96114.38;5054040;28;20190;-83
2022/10/18 00:37:42;;;;;;;8.03;6.47;;;;;;;11.35;59.15;96124.50;5072363;28;20234;-81
2022/10/18 00:40:10;;;;;;;9.93;6.73;;;;;;;11.29;59.20;96112.94;5072677;28;20229;-83
2022/10/18 00:42:40;;;;;;;10.33;6.33;;;;;;;11.20;59.42;96101.59;5072076;28;20194;-82
2022/10/18 00:45:16;;;;;;;11.33;6.33;;;;;;;11.30;59.34;96119.69;5072988;28;20194;-82
2022/10/18 00:48:07;;;;;;;10.60;6.03;;;;;;;11.27;59.51;96112.25;5072928;28;20197;-82
2022/10/18 00:50:35;;;;;;;8.00;6.00;;;;;;;11.25;59.51;96114.91;5072694;28;20198;-82
2022/10/18 00:53:04;;;;;;;9.70;6.30;;;;;;;11.21;59.63;96103.22;5071801;28;20200;-82
2022/10/18 00:55:33;;;;;;;9.50;6.10;;;;;;;11.23;59.48;96105.69;5081696;28;20187;-81
2022/10/18 00:58:11;;;;;;;8.60;5.67;;;;;;;11.21;59.51;96110.91;5086580;28;20246;-81
2022/10/18 01:00:39;;;;;;;8.67;5.73;;;;;;;11.10;59.57;96095.50;5078778;28;20186;-80
2022/10/18 01:03:08;;;;;;;8.17;6.60;;;;;;;11.18;59.46;96108.59;5076851;28;20183;-82
2022/10/18 01:05:38;;;;;;;9.17;6.13;;;;;;;10.99;59.80;96080.84;5074849;28;20190;-81
2022/10/18 01:08:24;;;;;;;8.83;6.13;;;;;;;11.11;59.77;96101.44;5084763;28;20188;-81
2022/10/18 01:11:07;;;;;;;9.43;6.10;;;;;;;11.12;59.67;96105.63;5080392;28;20209;-82
2022/10/18 01:13:43;;;;;;;8.53;5.57;;;;;;;11.10;59.66;96102.34;5084976;28;20178;-80
2022/10/18 01:16:19;;;;;;;8.00;6.13;;;;;;;11.03;60.01;96089.16;5095836;28;20189;-80
2022/10/18 01:18:53;;;;;;;12.77;6.50;;;;;;;10.90;59.98;96073.00;5095175;28;20198;-83
2022/10/18 01:21:34;;;;;;;9.17;6.50;;;;;;;11.01;60.02;96096.94;5094014;28;20190;-81
2022/10/18 01:24:30;;;;;;;8.07;5.83;;;;;;;11.03;60.10;96100.19;5061323;28;20201;-83
2022/10/18 01:27:13;;;;;;;7.90;5.73;;;;;;;10.85;59.95;96070.75;5071586;28;20186;-81
2022/10/18 01:29:50;;;;;;;8.97;5.87;;;;;;;10.98;60.09;96093.78;5071667;28;20201;-81
2022/10/18 01:32:22;;;;;;;9.67;6.53;;;;;;;10.90;60.18;96081.50;5071509;28;20186;-81
2022/10/18 01:34:52;;;;;;;7.93;5.87;;;;;;;10.93;60.19;96088.16;5071471;28;20190;-81
2022/10/18 01:37:22;;;;;;;8.33;6.00;;;;;;;10.93;60.08;96086.41;5070966;28;20233;-82
2022/10/18 01:39:55;;;;;;;6.33;5.70;;;;;;;10.93;60.02;96083.03;5071181;28;20321;-81
2022/10/18 01:42:21;;;;;;;8.17;5.90;;;;;;;10.87;60.13;96075.75;5071681;28;20658;-80
2022/10/18 01:44:51;;;;;;;8.60;6.00;;;;;;;10.82;60.19;96070.16;5070527;28;20669;-81
2022/10/18 01:47:21;;;;;;;9.53;6.77;;;;;;;10.83;60.28;96075.16;5071681;28;20190;-82
2022/10/18 01:49:48;;;;;;;8.90;6.13;;;;;;;10.88;60.24;96079.94;5070857;28;20194;-81
2022/10/18 01:52:16;;;;;;;8.23;6.00;;;;;;;10.85;60.23;96075.88;5070680;28;20557;-82
2022/10/18 01:54:47;;;;;;;7.83;5.80;;;;;;;10.82;60.34;96070.97;5070607;28;20190;-83
2022/10/18 01:57:23;;;;;;;9.07;5.63;;;;;;;10.84;60.31;96071.69;5071021;28;20197;-81
2022/10/18 01:59:58;;;;;;;8.30;5.77;;;;;;;10.82;60.26;96075.25;5070386;28;20232;-82
2022/10/18 02:02:41;;;;;;;7.00;5.63;;;;;;;10.80;60.26;96077.94;5070507;28;20629;-82
2022/10/18 02:05:17;;;;;;;9.20;6.10;;;;;;;10.68;60.09;96053.19;5070690;28;20210;-83
2022/10/18 02:07:50;;;;;;;9.20;5.83;;;;;;;10.78;60.42;96072.09;5070275;28;20561;-83
2022/10/18 02:10:24;;;;;;;8.17;6.33;;;;;;;10.77;60.39;96063.59;5070727;28;20195;-83
2022/10/18 02:12:53;;;;;;;10.67;6.17;;;;;;;10.76;60.39;96064.53;5070218;28;20197;-83
2022/10/18 02:15:34;;;;;;;7.30;6.20;;;;;;;10.72;60.48;96057.97;5069865;28;20201;-83
2022/10/18 02:18:06;;;;;;;7.93;5.80;;;;;;;10.71;60.62;96056.34;5069791;28;20190;-82
2022/10/18 02:20:36;;;;;;;10.03;6.20;;;;;;;10.62;60.36;96043.34;5070142;28;20565;-82
2022/10/18 02:23:05;;;;;;;9.33;6.20;;;;;;;10.59;60.50;96046.13;5069985;28;20190;-81
2022/10/18 02:25:34;;;;;;;13.20;6.87;;;;;;;10.44;60.33;96017.28;5070042;28;20849;-81
2022/10/18 02:28:01;;;;;;;9.47;6.60;;;;;;;10.68;60.57;96058.31;5069480;28;20269;-81
2022/10/18 02:30:33;;;;;;;9.13;6.63;;;;;;;10.64;60.63;96051.75;5069839;28;20209;-83
2022/10/18 02:33:12;;;;;;;9.90;6.83;;;;;;;10.69;60.68;96060.75;5069549;28;20666;-81
2022/10/18 02:35:44;;;;;;;9.17;6.03;;;;;;;10.68;60.67;96060.84;5070533;28;20212;-81
2022/10/18 02:38:14;;;;;;;8.70;6.70;;;;;;;10.67;60.64;96062.59;5070086;28;20299;-82
2022/10/18 02:40:41;;;;;;;10.60;7.23;;;;;;;10.59;60.69;96048.69;5072560;28;20225;-82
2022/10/18 02:43:08;;;;;;;8.00;6.20;;;;;;;10.54;60.52;96049.81;5070180;28;20219;-83
2022/10/18 02:45:35;;;;;;;11.20;6.60;;;;;;;10.64;60.83;96067.09;5070184;28;20668;-82
2022/10/18 02:48:02;;;;;;;10.03;6.23;;;;;;;10.55;60.69;96058.31;5070211;28;20214;-83
2022/10/18 02:50:30;;;;;;;10.40;6.27;;;;;;;10.63;60.74;96073.97;5071296;28;20197;-82
2022/10/18 02:52:57;;;;;;;6.97;5.60;;;;;;;10.63;60.89;96070.59;5071850;28;20186;-83
2022/10/18 02:55:24;;;;;;;11.63;7.23;;;;;;;10.45;60.81;96047.91;5071227;28;20297;-83
2022/10/18 02:57:50;;;;;;;8.60;6.03;;;;;;;10.61;60.67;96064.75;5083054;28;20194;-82
2022/10/18 03:00:17;;;;;;;7.77;6.20;;;;;;;10.61;60.70;96067.31;5083851;28;20281;-84
2022/10/18 03:02:44;;;;;;;9.13;5.80;;;;;;;10.59;60.75;96066.59;5073678;28;20188;-81
2022/10/18 03:05:11;;;;;;;8.33;5.97;;;;;;;10.58;60.76;96065.78;5072011;28;20550;-83
2022/10/18 03:07:39;;;;;;;9.60;6.33;;;;;;;10.50;60.31;96057.81;5070875;28;20673;-83
2022/10/18 03:10:07;;;;;;;10.47;6.27;;;;;;;10.57;60.77;96066.69;5070308;28;20252;-82
2022/10/18 03:12:34;;;;;;;9.37;6.37;;;;;;;10.55;60.90;96069.34;5069852;28;20274;-82
2022/10/18 03:15:01;;;;;;;12.73;5.90;;;;;;;10.53;60.78;96066.09;5070064;28;20197;-81
2022/10/18 03:17:28;;;;;;;10.10;6.30;;;;;;;10.54;60.84;96064.34;5070240;28;20194;-81
2022/10/18 03:19:55;;;;;;;7.93;5.97;;;;;;;10.53;60.68;96061.00;5069578;28;20229;-82
2022/10/18 03:22:24;;;;;;;9.13;5.80;;;;;;;10.52;60.82;96061.88;5071186;28;20183;-81
2022/10/18 03:24:52;;;;;;;7.40;6.30;;;;;;;10.51;60.94;96062.00;5069701;28;20252;-82
2022/10/18 03:27:20;;;;;;;9.60;6.30;;;;;;;10.50;60.75;96063.75;5070072;28;20195;-83
2022/10/18 03:29:47;;;;;;;11.17;6.00;;;;;;;10.45;60.71;96055.56;5072484;28;20217;-83
2022/10/18 03:32:14;;;;;;;8.00;5.67;;;;;;;10.49;60.75;96063.81;5070592;28;20197;-83
2022/10/18 03:34:41;;;;;;;6.97;5.77;;;;;;;10.10;60.70;96001.63;5069896;28;20197;-83
2022/10/18 03:37:08;;;;;;;10.10;6.23;;;;;;;10.46;60.83;96056.38;5070051;28;20774;-83
2022/10/18 03:39:34;;;;;;;8.83;6.40;;;;;;;10.24;60.64;96018.63;5072100;28;20222;-81
2022/10/18 03:42:03;;;;;;;8.27;6.60;;;;;;;10.41;60.85;96058.44;5073416;28;20723;-83
2022/10/18 03:44:29;;;;;;;11.63;5.83;;;;;;;10.39;60.99;96053.41;5073558;28;20193;-82
2022/10/18 03:46:56;;;;;;;8.90;5.63;;;;;;;10.42;60.85;96063.44;5072821;28;20194;-83
2022/10/18 03:49:23;;;;;;;8.23;5.83;;;;;;;10.35;60.87;96058.81;5074274;28;20194;-81
2022/10/18 03:51:50;;;;;;;8.07;5.70;;;;;;;10.33;61.08;96058.94;5074250;28;20191;-83
2022/10/18 03:54:17;;;;;;;10.53;6.13;;;;;;;10.41;60.94;96081.44;5075604;28;20269;-83
2022/10/18 03:56:44;;;;;;;9.73;5.40;;;;;;;10.38;60.99;96077.34;5078072;28;20194;-81
2022/10/18 03:59:12;;;;;;;6.83;5.07;;;;;;;10.36;60.91;96070.69;5085000;28;20225;-83
2022/10/18 04:01:44;;;;;;;11.17;5.80;;;;;;;10.17;60.87;96045.50;5076685;28;20229;-82
2022/10/18 04:04:11;;;;;;;8.33;5.30;;;;;;;10.29;61.06;96066.00;5073721;28;20201;-82
2022/10/18 04:06:38;;;;;;;8.40;6.20;;;;;;;10.25;61.07;96059.44;5076027;28;20666;-84
2022/10/18 04:09:05;;;;;;;9.53;5.70;;;;;;;10.25;60.91;96058.63;5076806;28;20194;-83
2022/10/18 04:11:32;;;;;;;8.20;5.83;;;;;;;10.33;61.03;96068.34;5075167;28;20195;-82
2022/10/18 04:13:59;;;;;;;7.27;5.80;;;;;;;10.33;61.21;96070.91;5055609;28;20199;-83
2022/10/18 04:16:27;;;;;;;11.53;6.20;;;;;;;10.23;60.85;96058.72;5057656;28;20194;-84
2022/10/18 04:18:54;;;;;;;8.60;5.97;;;;;;;10.23;61.20;96060.41;5056483;28;20198;-83
2022/10/18 04:21:29;;;;;;;8.70;5.67;;;;;;;10.11;61.00;96045.91;5068225;28;20183;-82
2022/10/18 04:23:59;;;;;;;9.13;5.60;;;;;;;10.28;61.06;96078.88;5075979;28;20190;-82
2022/10/18 04:26:25;;;;;;;6.87;5.60;;;;;;;10.27;61.06;96077.22;5076043;28;20178;-83
2022/10/18 04:28:55;;;;;;;9.47;6.43;;;;;;;10.26;61.04;96071.31;5076499;28;20248;-83
2022/10/18 04:31:22;;;;;;;9.90;5.87;;;;;;;10.11;60.98;96045.91;5076915;28;20179;-80
2022/10/18 04:33:50;;;;;;;12.83;6.43;;;;;;;9.94;60.95;96019.72;5076972;28;20194;-84
2022/10/18 04:36:17;;;;;;;10.53;6.87;;;;;;;10.25;61.09;96071.41;5076942;28;20182;-83
2022/10/18 04:38:44;;;;;;;9.13;5.93;;;;;;;10.02;61.07;96032.00;5081849;28;20191;-83
2022/10/18 04:41:11;;;;;;;11.53;7.10;;;;;;;10.09;61.12;96040.88;5092496;28;20210;-82
2022/10/18 04:43:40;;;;;;;12.80;6.97;;;;;;;10.24;61.06;96067.19;5091438;28;20183;-82
2022/10/18 04:46:07;;;;;;;8.83;6.30;;;;;;;10.24;61.03;96069.75;5080527;28;20209;-85
2022/10/18 04:48:34;;;;;;;8.93;6.13;;;;;;;9.85;61.02;95989.69;5081804;28;20195;-83
2022/10/18 04:51:02;;;;;;;13.80;6.47;;;;;;;10.25;60.94;96068.84;5084227;28;20182;-80
2022/10/18 04:53:29;;;;;;;11.03;6.57;;;;;;;9.87;61.09;95997.22;5082888;28;20187;-84
2022/10/18 04:55:56;;;;;;;8.70;6.50;;;;;;;10.23;60.94;96056.16;5085038;28;20225;-82
2022/10/18 04:58:23;;;;;;;15.30;6.40;;;;;;;10.24;61.25;96050.16;5095003;28;20178;-84
2022/10/18 05:00:50;;;;;;;9.87;5.87;;;;;;;10.30;61.14;96054.03;5096092;28;20224;-84
2022/10/18 05:03:17;;;;;;;10.10;6.87;;;;;;;10.33;60.93;96056.38;5094828;28;20194;-82
2022/10/18 05:05:44;;;;;;;12.30;6.97;;;;;;;10.25;60.95;96033.88;5092942;28;20660;-81
2022/10/18 05:08:13;;;;;;;12.70;6.83;;;;;;;10.31;60.88;96042.88;5093260;28;20258;-82
2022/10/18 05:10:40;;;;;;;15.37;6.47;;;;;;;10.41;61.00;96049.03;5093022;28;20193;-82
2022/10/18 05:13:13;;;;;;;10.53;6.30;;;;;;;10.45;60.92;96045.34;5093624;28;20193;-81
2022/10/18 05:15:58;;;;;;;14.57;7.47;;;;;;;10.49;60.85;96049.31;5086523;28;20186;-84
2022/10/18 05:18:25;;;;;;;13.30;7.43;;;;;;;10.54;60.70;96051.56;5093226;28;20202;-82
2022/10/18 05:20:51;;;;;;;19.97;7.83;;;;;;;10.31;60.62;96007.06;5094541;28;20225;-82
2022/10/18 05:23:20;;;;;;;15.87;7.07;;;;;;;10.59;60.61;96044.41;5094679;28;20205;-82
2022/10/18 05:25:46;;;;;;;11.57;7.27;;;;;;;10.64;60.46;96038.97;5091559;28;20190;-81
2022/10/18 05:28:14;;;;;;;18.40;7.60;;;;;;;10.74;60.22;96053.56;5082185;28;20191;-84
2022/10/18 05:30:41;;;;;;;17.93;8.03;;;;;;;10.79;60.23;96051.53;5077042;28;20194;-82
2022/10/18 05:33:08;;;;;;;13.83;7.37;;;;;;;10.86;60.04;96058.78;5076784;28;20194;-83
2022/10/18 05:35:36;;;;;;;16.00;7.13;;;;;;;10.91;59.97;96054.16;5077754;28;20191;-81
2022/10/18 05:38:04;;;;;;;20.90;7.27;;;;;;;10.96;59.79;96058.03;5076554;28;20222;-82
2022/10/18 05:40:37;;;;;;;16.13;7.67;;;;;;;10.88;59.59;96029.59;5074531;28;20206;-82
2022/10/18 05:43:05;;;;;;;13.67;7.67;;;;;;;11.03;59.49;96043.88;5073780;28;20677;-84
2022/10/18 05:45:32;;;;;;;21.00;8.83;;;;;;;11.22;59.43;96061.31;5074793;28;20190;-84
2022/10/18 05:47:59;;;;;;;14.17;7.30;;;;;;;11.31;59.21;96064.97;5076076;28;20209;-84
2022/10/18 05:50:26;;;;;;;12.83;7.90;;;;;;;11.37;59.02;96058.63;5073806;28;20202;-82
2022/10/18 05:52:56;;;;;;;14.13;7.83;;;;;;;11.49;59.13;96071.38;5072193;28;20204;-82
2022/10/18 05:55:23;;;;;;;14.63;8.37;;;;;;;11.59;58.72;96063.84;5073375;28;20619;-83
2022/10/18 05:57:55;;;;;;;14.57;8.20;;;;;;;11.68;58.49;96058.06;5074549;28;20190;-81
2022/10/18 06:00:22;;;;;;;17.30;9.53;;;;;;;11.92;58.42;96063.19;5073325;28;20251;-82
2022/10/18 06:02:49;;;;;;;12.57;8.13;;;;;;;12.09;58.17;96063.69;5085943;28;20186;-82
2022/10/18 06:05:16;;;;;;;12.67;9.43;;;;;;;12.24;58.06;96062.56;5088092;28;20431;-82
2022/10/18 06:07:43;;;;;;;12.23;8.57;;;;;;;12.09;57.71;96014.97;5087679;28;20197;-82
2022/10/18 06:10:10;;;;;;;11.77;8.27;;;;;;;12.49;57.58;96046.97;5088038;28;20254;-82
2022/10/18 06:12:37;;;;;;;12.10;9.53;;;;;;;12.78;57.34;96065.28;5085235;28;20187;-83
2022/10/18 06:15:06;;;;;;;11.07;8.50;;;;;;;13.07;57.37;96050.19;5077278;28;20198;-82
2022/10/18 06:17:32;;;;;;;13.57;8.50;;;;;;;13.47;58.50;96029.13;5071387;28;20178;-82
2022/10/18 06:19:59;;;;;;;13.13;8.03;;;;;;;14.32;58.96;96061.63;5070467;28;20228;-82
2022/10/18 06:22:26;;;;;;;15.70;7.60;;;;;;;15.10;58.60;96064.56;5071200;28;20178;-84
2022/10/18 06:24:53;;;;;;;14.63;8.30;;;;;;;15.93;57.97;96066.75;5071065;28;20588;-82
2022/10/18 06:27:20;;;;;;;13.13;8.20;;;;;;;16.76;56.90;96054.09;5071150;28;20190;-82
2022/10/18 06:29:47;;;;;;;13.77;7.77;;;;;;;17.69;55.67;96060.75;5072199;28;20194;-82
2022/10/18 06:32:15;;;;;;;12.83;7.57;;;;;;;18.47;54.26;96041.94;5071936;28;20194;-86
2022/10/18 06:34:42;;;;;;;12.80;7.07;;;;;;;19.37;52.85;96058.72;5071869;28;20600;-83
2022/10/18 06:37:09;;;;;;;9.97;6.40;;;;;;;20.23;51.12;96060.94;5071952;28;20222;-84
2022/10/18 06:39:36;;;;;;;13.50;6.17;;;;;;;21.01;49.91;96054.28;5071824;28;20660;-84
2022/10/18 06:42:02;;;;;;;11.20;6.00;;;;;;;21.73;48.62;96057.50;5071005;28;20228;-83
2022/10/18 06:44:30;;;;;;;7.60;5.68;;;;;;;22.44;47.29;96063.28;5071569;28;20187;-82
2022/10/18 06:46:57;;;;;;;9.95;5.93;;;;;;;23.08;45.91;96057.59;5071522;28;20182;-85
2022/10/18 06:49:25;;;;;;;7.35;5.80;;;;;;;23.77;44.85;96070.22;5072119;28;20600;-83
2022/10/18 06:51:53;;;;;;;5.70;5.10;;;;;;;24.39;43.82;96063.56;5072045;28;20187;-82
2022/10/18 06:54:20;;;;;;;9.25;5.80;;;;;;;24.97;43.20;96056.28;5071378;28;20197;-85
2022/10/18 06:56:47;;;;;;;15.05;5.43;;;;;;;25.53;42.07;96064.78;5070883;28;20657;-83
2022/10/18 06:59:14;;;;;;;10.23;6.15;;;;;;;26.04;41.05;96063.50;5070413;28;20195;-84
2022/10/18 07:01:42;;;;;;;12.23;5.45;;;;;;;26.43;40.27;96051.41;5071468;28;20214;-83
2022/10/18 07:04:09;;;;;;;9.82;6.30;;;;;;;26.96;39.70;96064.44;5075846;28;20187;-86
2022/10/18 07:06:37;;;;;;;8.85;6.20;;;;;;;26.99;38.69;96011.53;5079229;28;20196;-84
2022/10/18 07:09:04;;;;;;;11.55;6.43;;;;;;;27.74;38.19;96062.53;5072288;28;20195;-82
2022/10/18 07:11:31;;;;;;;9.05;7.00;;;;;;;28.08;37.48;96078.09;5070630;28;20191;-83
2022/10/18 07:14:02;;;;;;;10.82;6.95;;;;;;;28.08;36.76;96026.31;5070131;28;20547;-83
2022/10/18 07:16:30;;;;;;;12.27;7.22;;;;;;;28.66;36.26;96075.22;5070421;28;20719;-84
2022/10/18 07:18:57;;;;;;;12.52;7.35;;;;;;;28.90;35.91;96070.94;5070507;28;20183;-83
2022/10/18 07:21:25;;;;;;;12.30;6.88;;;;;;;29.12;35.38;96072.13;5075047;28;20226;-86
2022/10/18 07:23:54;;;;;;;13.65;7.53;;;;;;;29.16;35.11;96036.41;5074433;28;20853;-84
2022/10/18 07:26:23;;;;;;;13.68;7.75;;;;;;;29.53;35.02;96064.53;5055756;28;20194;-85
2022/10/18 07:28:53;;;;;;;12.00;7.35;;;;;;;29.54;34.32;96043.25;5073925;28;20198;-83
2022/10/18 07:31:20;;;;;;;11.63;7.38;;;;;;;29.83;34.16;96065.38;5074149;28;20209;-83
2022/10/18 07:33:47;;;;;;;10.85;7.05;;;;;;;29.91;33.86;96054.50;5074553;28;20561;-83
2022/10/18 07:36:14;;;;;;;9.88;7.10;;;;;;;30.07;33.82;96065.44;5076956;28;20908;-82
2022/10/18 07:38:41;;;;;;;11.68;7.00;;;;;;;30.08;33.43;96049.38;5075390;28;20230;-82
2022/10/18 07:41:11;;;;;;;11.13;6.85;;;;;;;30.21;33.33;96053.66;5058679;28;20222;-83
2022/10/18 07:43:42;;;;;;;11.00;7.47;;;;;;;30.20;32.74;96038.88;5075776;28;20197;-83
2022/10/18 07:46:08;;;;;;;12.02;7.43;;;;;;;30.28;32.96;96053.56;5075626;28;20197;-83
2022/10/18 07:48:35;;;;;;;9.88;6.75;;;;;;;30.29;32.88;96050.69;5075504;28;20186;-82
2022/10/18 07:51:02;;;;;;;12.25;7.13;;;;;;;30.30;32.59;96044.38;5075309;28;20269;-83
2022/10/18 07:53:29;;;;;;;9.70;6.65;;;;;;;30.20;32.86;96033.59;5075455;28;20186;-82
2022/10/18 07:56:00;;;;;;;11.95;7.53;;;;;;;30.25;32.46;96038.97;5078834;28;20202;-82
2022/10/18 07:58:28;;;;;;;14.32;7.35;;;;;;;30.12;32.54;96029.41;5078097;28;20220;-82
2022/10/18 08:00:55;;;;;;;11.18;7.65;;;;;;;30.12;32.78;96032.03;5077582;28;20218;-83
2022/10/18 08:03:22;;;;;;;10.23;7.32;;;;;;;30.06;32.81;96037.44;5075697;28;20198;-86
2022/10/18 08:05:53;;;;;;;12.55;8.23;;;;;;;29.77;33.00;96016.16;5075832;28;20186;-86
2022/10/18 08:08:20;;;;;;;11.85;7.88;;;;;;;29.53;33.37;96028.44;5075690;28;20256;-83
2022/10/18 08:10:47;;;;;;;16.15;8.63;;;;;;;28.99;33.17;95988.78;5075114;28;20183;-84
2022/10/18 08:13:15;;;;;;;13.50;8.15;;;;;;;28.80;33.16;96018.78;5074535;28;20194;-86
2022/10/18 08:15:43;;;;;;;12.75;7.57;;;;;;;28.50;33.43;96024.75;5076325;28;20201;-82
2022/10/18 08:18:11;;;;;;;9.77;7.63;;;;;;;27.92;33.65;95974.22;5076824;28;20700;-85
2022/10/18 08:20:38;;;;;;;13.63;7.60;;;;;;;28.01;33.77;96023.72;5077676;28;20222;-83
2022/10/18 08:23:05;;;;;;;18.10;8.88;;;;;;;27.81;33.76;96023.06;5076407;28;20581;-83
2022/10/18 08:25:32;;;;;;;15.85;8.40;;;;;;;27.57;33.57;96013.28;5078096;28;20194;-82
2022/10/18 08:28:00;;;;;;;11.70;8.45;;;;;;;27.26;33.56;96013.03;5076522;28;20190;-82
2022/10/18 08:30:27;;;;;;;17.48;8.75;;;;;;;26.94;34.08;96009.53;5084784;28;20174;-82
2022/10/18 08:32:55;;;;;;;18.92;8.85;;;;;;;26.44;33.62;95971.69;5095702;28;20201;-82
2022/10/18 08:35:22;;;;;;;14.57;8.07;;;;;;;26.25;33.94;95984.63;5097153;28;20213;-83
2022/10/18 08:37:49;;;;;;;15.48;8.57;;;;;;;26.06;34.21;95982.00;5096464;28;20240;-83
2022/10/18 08:40:16;;;;;;;17.80;9.65;;;;;;;25.75;34.15;95980.78;5096643;28;20238;-82
2022/10/18 08:42:58;;;;;;;14.02;9.25;;;;;;;25.53;34.45;95975.72;5077389;28;20194;-82
2022/10/18 08:45:25;;;;;;;13.57;8.68;;;;;;;25.30;34.67;95967.38;5075373;28;20676;-81
2022/10/18 08:47:56;;;;;;;13.60;9.35;;;;;;;25.09;34.78;95965.75;5075386;28;20193;-83
2022/10/18 08:50:29;;;;;;;12.52;8.77;;;;;;;24.88;34.85;95968.47;5074776;28;20194;-86
2022/10/18 08:53:01;;;;;;;11.63;8.85;;;;;;;24.63;35.04;95961.09;5073277;28;20195;-83
2022/10/18 08:55:35;;;;;;;9.32;8.25;;;;;;;24.27;34.94;95933.31;5073615;28;20178;-86
2022/10/18 08:58:04;;;;;;;16.10;9.05;;;;;;;24.26;35.27;95957.84;5073049;28;20268;-83
2022/10/18 09:00:34;;;;;;;21.73;9.50;;;;;;;24.11;35.40;95954.53;5072685;28;20198;-85
2022/10/18 09:03:22;;;;;;;11.20;8.38;;;;;;;23.94;35.69;95955.81;5073474;28;20198;-82
2022/10/18 09:05:54;;;;;;;12.75;9.07;;;;;;;23.51;35.71;95917.47;5073452;28;20195;-85
2022/10/18 09:08:38;;;;;;;16.17;9.35;;;;;;;23.50;36.11;95949.00;5080858;28;20213;-83
2022/10/18 09:11:15;;;;;;;13.40;8.85;;;;;;;23.45;36.26;95960.00;5073620;28;20198;-85
2022/10/18 09:14:09;;;;;;;14.20;8.68;;;;;;;23.31;36.33;95949.59;5072899;28;20194;-83
2022/10/18 09:16:44;;;;;;;16.30;9.18;;;;;;;23.09;36.57;95946.16;5055082;28;20197;-82
2022/10/18 09:19:20;;;;;;;15.02;8.63;;;;;;;23.03;36.36;95948.53;5071819;28;20198;-83
2022/10/18 09:21:52;;;;;;;15.57;9.70;;;;;;;22.59;36.52;95895.63;5071723;28;20688;-83
2022/10/18 09:24:26;;;;;;;15.02;7.95;;;;;;;22.65;36.91;95924.38;5072291;28;20248;-82
2022/10/18 09:26:58;;;;;;;12.25;8.38;;;;;;;22.72;37.06;95945.34;5073319;28;20211;-84
2022/10/18 09:29:45;;;;;;;14.00;9.02;;;;;;;22.63;37.19;95944.63;5072397;28;20186;-83
2022/10/18 09:32:26;;;;;;;13.73;9.23;;;;;;;22.54;37.17;95938.69;5072969;28;20190;-82
2022/10/18 09:34:57;;;;;;;11.35;8.68;;;;;;;22.37;37.33;95924.25;5077978;28;20182;-82
2022/10/18 09:37:29;;;;;;;13.50;8.35;;;;;;;22.37;37.46;95929.44;5088584;28;20222;-84
2022/10/18 09:40:02;;;;;;;14.70;8.93;;;;;;;22.31;37.54;95930.16;5091570;28;20190;-84
2022/10/18 09:42:34;;;;;;;15.77;8.65;;;;;;;22.25;37.38;95925.69;5093118;28;20226;-82
2022/10/18 09:45:04;;;;;;;19.90;9.30;;;;;;;22.17;37.49;95923.97;5076358;28;20202;-81
2022/10/18 09:47:37;;;;;;;11.85;8.20;;;;;;;21.95;37.73;95888.34;5071813;28;20205;-83
2022/10/18 09:50:17;;;;;;;11.43;8.52;;;;;;;22.11;37.80;95914.22;5070821;28;20226;-84
2022/10/18 09:52:51;;;;;;;16.45;8.68;;;;;;;22.07;37.72;95918.19;5071726;28;20197;-83
2022/10/18 09:55:23;;;;;;;12.65;8.60;;;;;;;22.03;38.03;95916.91;5071062;28;20217;-83
2022/10/18 09:57:54;;;;;;;13.55;8.68;;;;;;;22.00;37.87;95914.66;5053983;28;20190;-83
2022/10/18 10:00:25;;;;;;;16.15;8.23;;;;;;;21.98;37.98;95904.44;5071879;28;20649;-82
2022/10/18 10:02:52;;;;;;;13.70;7.82;;;;;;;21.92;38.07;95899.13;5070898;28;20254;-82
2022/10/18 10:05:19;;;;;;;11.32;7.80;;;;;;;21.84;38.32;95878.34;5070479;28;20186;-82
2022/10/18 10:07:49;;;;;;;14.40;7.60;;;;;;;21.94;38.27;95891.94;5071437;28;20193;-85
2022/10/18 10:10:20;;;;;;;14.70;8.50;;;;;;;21.70;38.19;95854.72;5071337;28;20179;-84
2022/10/18 10:12:48;;;;;;;9.52;7.78;;;;;;;21.84;38.25;95873.16;5075336;28;20182;-83
2022/10/18 10:15:22;;;;;;;12.35;8.18;;;;;;;21.87;38.17;95870.19;5080999;28;20190;-83
2022/10/18 10:17:57;;;;;;;11.80;7.53;;;;;;;21.91;38.31;95871.44;5086731;28;20293;-81
2022/10/18 10:20:36;;;;;;;8.73;6.95;;;;;;;21.90;38.41;95862.03;5086175;28;20195;-83
2022/10/18 10:23:21;;;;;;;11.00;7.15;;;;;;;21.78;38.32;95844.22;5071962;28;20264;-84
2022/10/18 10:25:51;;;;;;;11.18;7.15;;;;;;;21.88;38.43;95856.19;5071685;28;20197;-83
2022/10/18 10:28:21;;;;;;;10.75;7.13;;;;;;;21.71;38.57;95824.28;5070343;28;20675;-83
2022/10/18 10:30:48;;;;;;;10.60;7.53;;;;;;;21.88;38.38;95846.56;5070904;28;20614;-82
2022/10/18 10:33:34;;;;;;;12.23;7.35;;;;;;;21.87;38.56;95841.53;5070808;28;20193;-83
2022/10/18 10:36:02;;;;;;;8.75;6.55;;;;;;;21.87;38.55;95839.75;5074749;28;20200;-82
2022/10/18 10:38:31;;;;;;;11.52;7.07;;;;;;;21.45;38.39;95770.84;5087566;28;20229;-85
2022/10/18 10:40:59;;;;;;;12.00;6.85;;;;;;;21.83;38.48;95822.84;5090864;28;20221;-82
2022/10/18 10:43:29;;;;;;;11.95;7.00;;;;;;;21.86;38.49;95821.69;5085803;28;20879;-83
2022/10/18 10:46:01;;;;;;;8.35;6.55;;;;;;;21.85;38.54;95817.44;5072157;28;20194;-84
2022/10/18 10:48:32;;;;;;;9.07;6.30;;;;;;;21.80;38.63;95799.78;5070589;28;20573;-82
2022/10/18 10:51:06;;;;;;;11.73;7.18;;;;;;;21.85;38.48;95800.06;5070632;28;20618;-84
2022/10/18 10:53:44;;;;;;;9.90;6.80;;;;;;;21.81;38.79;95787.59;5069771;28;20179;-84
2022/10/18 10:56:18;;;;;;;9.30;6.78;;;;;;;21.61;38.63;95756.88;5073798;28;20716;-84
2022/10/18 10:58:45;;;;;;;8.50;6.10;;;;;;;21.86;38.73;95793.84;5074601;28;20201;-83
2022/10/18 11:01:25;;;;;;;8.65;6.03;;;;;;;21.86;38.76;95788.66;5074001;28;20693;-86
2022/10/18 11:03:54;;;;;;;10.85;6.13;;;;;;;21.87;38.64;95776.44;5074655;28;20212;-82
2022/10/18 11:06:48;;;;;;;11.23;6.20;;;;;;;21.83;38.75;95772.56;5075158;28;20576;-83
2022/10/18 11:09:26;;;;;;;9.68;5.38;;;;;;;21.86;38.74;95780.03;5083042;28;20190;-84
2022/10/18 11:12:03;;;;;;;6.90;5.35;;;;;;;21.74;38.76;95753.63;5087128;28;20218;-86
2022/10/18 11:14:34;;;;;;;11.65;5.32;;;;;;;21.87;38.69;95772.03;5076830;28;20182;-85
2022/10/18 11:17:12;;;;;;;9.68;6.40;;;;;;;21.60;38.75;95726.63;5074728;28;20205;-85
2022/10/18 11:19:49;;;;;;;7.82;5.15;;;;;;;21.85;38.78;95758.38;5075449;28;20251;-85
2022/10/18 11:22:20;;;;;;;6.80;5.22;;;;;;;21.87;38.80;95759.00;5074092;28;20214;-86
2022/10/18 11:24:49;;;;;;;8.02;5.68;;;;;;;21.86;39.13;95746.16;5074158;28;20197;-85
2022/10/18 11:27:25;;;;;;;7.05;5.38;;;;;;;21.85;38.88;95739.31;5074510;28;20195;-85
2022/10/18 11:30:07;;;;;;;7.10;5.00;;;;;;;21.88;38.94;95733.75;5074001;28;20198;-83
2022/10/18 11:32:41;;;;;;;6.60;5.05;;;;;;;21.87;39.01;95729.53;5073279;28;20649;-83
2022/10/18 11:35:27;;;;;;;6.80;4.60;;;;;;;21.86;38.89;95722.72;5073863;28;20225;-83
2022/10/18 11:38:10;;;;;;;7.43;5.25;;;;;;;21.78;38.94;95706.22;5073902;28;20225;-85
2022/10/18 11:40:55;;;;;;;5.95;4.97;;;;;;;21.82;38.82;95709.25;5074619;28;20193;-86
2022/10/18 11:43:27;;;;;;;8.57;5.35;;;;;;;21.67;38.94;95678.00;5073507;28;20405;-86